Warning: Javascript must be enabled to use all the features on this page!


Page Loading - Please Wait...

Click to hideNews Bulletins

Peak Streamflow for South Carolina

Click to hide state-specific text

USGS 02169500 CONGAREE RIVER AT COLUMBIA, SC

Lexington County, South Carolina
Hydrologic Unit Code 03050110
Latitude  33°59'35", Longitude  81°03'00" NAD27
Drainage area 7,850  square miles
Gage datum 112.14 feet above NAVD88
Output formats
Table
Graph
Tab-separated file
peakfq (watstore) format
Reselect output format
Water
Year
Date Gage
Height
(feet)
Stream-
flow
(cfs)
1852 1852-09 34.40Bd  
1892 1892-01-20 24.60 154,000
1893 1893-08-29 21.10 110,000
1894 1893-10-24 12.70 49,800
1895 1894-10-10 20.40 103,000
1896 1896-02-07 17.80 79,600
1897 1897-02-07 21.50 115,000
1898 1898-09-25 10.20 39,100
1899 1899-02-08 21.70 117,000
1900 1900-04-22 22.00 120,000
1901 1901-04-03 23.00 132,000
1902 1902-03-02 22.00 120,000
1903 1903-06-09 27.20 194,000
1904 1904-08-10 12.20 47,500
1905 1905-02-22 14.70 59,400
1906 1905-12-22 20.30 102,000
1907 1907-06-03 9.00 34,500
1908 1908-08-27 39.80 364,000
1909 1909-06-05 22.00 120,000
1910 1910-03-03 13.80 54,900
1911 1910-10-09 10.90 41,900
1912 1912-03-17 30.70 256,000
1913 1913-03-16 23.20 135,000
1914 1913-12-31 14.60 58,900
1915 1915-01-08 17.40 76,500
1916 1916-07-17 31.50 272,000
1917 1917-03-06 17.80 79,600
1918 1918-01-31 12.20 47,500
1919 1918-10-28 20.70 106,000
1920 1920-08-28 19.50 94,100
1921 1921-02-11 24.30 149,000
1922 1922-02-17 22.20 123,000
1923 1923-03-18 17.70 78,800
1924 1924-01-18 15.60 64,600
1925 1925-01-20 23.50 139,000
1926 1926-02-26 13.00 51,100
1927 1927-02-25 10.20 39,100
1928 1928-08-18 33.50 311,000
1929 1929-03-01 25.90 173,000
1930 1929-10-03 33.10 303,0005
1931 1930-12-08 6.70 26,8006
1932 1932-01-10 16.70 71,6006
1933 1932-10-19 21.50 115,0006
1934 1934-03-29 12.706 33,4006
1935 1934-10-12 23.30 92,3006
1936 1936-04-08 33.34 231,0006
1937 1936-10-19 20.56 70,9006
1938 1937-10-21 18.42 57,9006
1939 1939-03-02 19.93 66,4006
1940 1940-08-16 26.14 121,0006
1941 1941-07-18 17.19 52,0006
1942 1942-02-19 17.31 52,4006
1943 1943-01-20 19.44 63,4006
1944 1944-03-21 24.57 105,0006
1945 1945-09-20 24.30 102,0006
1946 1946-01-09 19.21 62,2006
1947 1947-01-21 19.42 63,4006
1948 1948-02-14 17.72 54,4006
1949 1948-11-30 25.56 116,0006
1950 1949-10-09 16.77 50,2006
1951 1950-12-09 12.27 32,0006
1952 1952-03-06 23.20 91,4006
1953 1953-02-23 15.28 43,5006
1954 1954-01-25 19.66 65,2006
1955 1955-04-15 16.06 47,0006
1956 1956-04-18 15.22 43,1006
1957 1957-04-07 12.00 31,0006
1958 1958-05-01 19.46 64,0006
1959 1959-06-03 12.60 33,1006
1960 1959-10-01 19.68 65,2006
1961 1961-02-25 21.08 74,4006
1962 1962-01-08 19.69 65,2006
1963 1963-03-15 23.09 91,8006
1964 1964-04-10 28.60 142,0006
1965 1964-10-18 26.18 120,0006
1966 1966-03-06 21.74 80,6006
1967 1967-08-25 23.78 97,9006
1968 1968-01-12 18.81 61,2006
1969 1969-04-19 23.37 94,2006
1970 1970-08-12 15.44 45,2006
1971 1971-03-04 21.55 79,1006
1972 1972-01-12 19.26 63,9006
1973 1973-04-02 23.99 99,8006
1974 1974-01-02 16.87 51,6006
1975 1975-03-16 26.47 122,0006
1976 1976-03-17 16.16 48,4006
1977 1976-10-11 29.74 155,0006
1978 1978-01-28 21.87 81,7006
1979 1979-02-26 23.46 94,5006
1980 1980-03-30 23.29 93,1006
1981 1980-10-02 16.81 51,3006
1982 1982-01-06 22.20 84,2006
1983 1983-03-18 19.65 66,0006
1984 1984-02-16 20.30 70,3006
1985 1985-08-19 17.52 54,7006
1986 1985-11-23 18.37 58,9006
1987 1987-03-03 26.67 123,0006
1988 1988-01-23 9.78 24,7006
1989 1989-03-25 16.17 48,4006
1990 1989-10-03 23.37 93,7006
1991 1990-10-15 27.94 135,0006
1992 1992-04-23 16.78 51,2006
1993 1993-03-26 19.49 65,2006
1994 1994-08-20 20.59 72,3006
1995 1995-01-17 25.95 116,0006
1996 1996-02-04 20.97 74,9006
1997 1997-02-17 16.69 50,8006
1998 1998-02-05 23.55 95,2006
1999 1999-01-06 10.51 27,0006
2000 2000-03-22 13.97 39,1006
2001 2001-03-31 11.86 31,4006
2002 2002-01-22 8.59 20,5006
2003 2003-03-22 25.79 115,0006
2004 2004-09-10 23.88 98,0006
2005 2005-03-29 17.76 55,9006
2006 2005-10-10 16.01 47,7006
2007 2007-03-04 22.00 82,6006
2008 2008-08-29 10.47 26,9006
2009 2009-03-30 15.01 43,3006
2010 2010-02-07 21.69 80,2006
2011 2011-04-01 9.80 24,8006
2012 2012-05-15 10.87 28,1006
2013 2013-05-08 24.39 102,0006
2014 2014-01-13 16.81 51,3006
2015 2015-04-21 15.13 43,8006
2016 2015-10-04 31.83 185,0006
2017 2017-04-26 13.43 37,0006
2018 2018-06-01 14.73 42,2006
2019 2018-11-17 18.97 62,1006,R
2020 2020-02-09 29.35 150,0006
?
  Peak Gage-Height Qualification Codes.
?
  Peak Streamflow Qualification Codes.